Time;durP1;ratioP1;P1;durP2;ratioP2;P2;SDS_P1;SDS_P2;PMS_P1;PMS_P2;Temp;Humidity;BMP_temperature;BMP_pressure;BME280_temperature;BME280_humidity;BME280_pressure;Samples;Min_cycle;Max_cycle;Signal;HPM_P1;HPM_P2
2022/04/26 03:36:08;;;;;;;12.33;7.83;;;6.80;1.00;;;;;;5135033;27;20191;-87
2022/04/26 03:38:35;;;;;;;12.93;8.27;;;6.80;1.00;;;;;;5135052;27;20701;-88
2022/04/26 03:41:03;;;;;;;12.67;8.20;;;6.80;1.00;;;;;;5134732;27;20719;-87
2022/04/26 03:43:30;;;;;;;13.37;8.23;;;6.80;1.00;;;;;;5135047;27;20240;-87
2022/04/26 03:45:58;;;;;;;13.60;8.13;;;6.80;1.00;;;;;;5134702;27;20646;-87
2022/04/26 03:48:28;;;;;;;13.07;7.97;;;6.70;1.00;;;;;;5134989;27;20190;-87
2022/04/26 03:50:56;;;;;;;13.50;7.23;;;6.70;1.00;;;;;;5134546;27;20247;-87
2022/04/26 03:53:23;;;;;;;11.97;7.80;;;6.70;1.00;;;;;;5134593;27;20254;-87
2022/04/26 03:55:50;;;;;;;11.77;7.87;;;6.70;1.00;;;;;;5134509;27;20198;-88
2022/04/26 03:58:17;;;;;;;13.33;7.93;;;6.70;1.00;;;;;;5134331;27;20268;-87
2022/04/26 04:00:44;;;;;;;13.43;7.33;;;6.70;1.00;;;;;;5134261;27;20601;-88
2022/04/26 04:03:11;;;;;;;13.33;7.23;;;6.70;1.00;;;;;;5134837;27;20199;-88
2022/04/26 04:05:38;;;;;;;12.93;7.60;;;6.70;1.00;;;;;;5134480;27;20194;-88
2022/04/26 04:08:07;;;;;;;15.63;8.27;;;6.80;1.00;;;;;;5134696;27;20247;-88
2022/04/26 04:10:34;;;;;;;16.37;9.33;;;6.80;1.00;;;;;;5134209;27;20188;-88
2022/04/26 04:13:01;;;;;;;14.67;9.23;;;6.90;1.00;;;;;;5134572;27;20199;-88
2022/04/26 04:15:29;;;;;;;16.40;10.03;;;7.00;1.00;;;;;;5134519;27;20209;-87
2022/04/26 04:17:56;;;;;;;23.40;11.87;;;7.10;1.00;;;;;;5134269;27;20284;-88
2022/04/26 04:20:23;;;;;;;37.33;18.40;;;7.20;1.00;;;;;;5134354;27;20272;-87
2022/04/26 04:22:53;;;;;;;23.23;16.27;;;7.30;1.00;;;;;;5134247;27;20240;-88
2022/04/26 04:25:22;;;;;;;12.80;7.77;;;7.40;1.00;;;;;;5134679;27;20225;-87
2022/04/26 04:27:49;;;;;;;13.63;7.53;;;7.40;1.00;;;;;;5133531;27;20241;-87
2022/04/26 04:30:16;;;;;;;14.03;6.73;;;7.50;1.00;;;;;;5134338;27;20245;-89
2022/04/26 04:32:43;;;;;;;12.07;6.77;;;7.50;1.00;;;;;;5133925;27;20654;-88
2022/04/26 04:35:10;;;;;;;16.73;8.30;;;7.50;1.00;;;;;;5134255;27;20249;-87
2022/04/26 04:37:37;;;;;;;12.07;7.20;;;7.50;1.00;;;;;;5134030;27;20237;-88
2022/04/26 04:40:05;;;;;;;12.50;7.00;;;7.60;1.00;;;;;;5133695;27;20262;-88
2022/04/26 04:42:33;;;;;;;13.47;6.90;;;7.60;1.00;;;;;;5133861;27;20196;-88
2022/04/26 04:45:02;;;;;;;13.70;7.03;;;7.60;1.00;;;;;;5133672;27;20701;-87
2022/04/26 04:47:29;;;;;;;15.87;6.77;;;7.60;1.00;;;;;;5133637;27;20669;-89
2022/04/26 04:49:56;;;;;;;12.23;6.97;;;7.60;1.00;;;;;;5133946;27;20251;-88
2022/04/26 04:52:23;;;;;;;14.10;7.27;;;7.70;1.00;;;;;;5133870;27;20276;-87
2022/04/26 04:54:50;;;;;;;13.83;6.90;;;7.60;1.00;;;;;;5134116;27;20300;-89
2022/04/26 04:57:17;;;;;;;12.03;6.63;;;7.60;1.00;;;;;;5134406;27;20238;-87
2022/04/26 04:59:45;;;;;;;12.70;6.97;;;7.60;1.00;;;;;;5134928;27;20691;-88
2022/04/26 05:02:12;;;;;;;10.63;6.53;;;7.60;1.00;;;;;;5131737;27;20245;-86
2022/04/26 05:04:42;;;;;;;12.93;7.37;;;7.70;1.00;;;;;;5132621;27;20581;-87
2022/04/26 05:07:09;;;;;;;12.57;7.67;;;7.70;1.00;;;;;;5132963;27;20660;-88
2022/04/26 05:09:37;;;;;;;12.47;7.30;;;7.80;1.00;;;;;;5133715;27;20192;-88
2022/04/26 05:12:05;;;;;;;44.77;8.93;;;7.90;1.00;;;;;;5133649;27;20228;-87
2022/04/26 05:14:32;;;;;;;24.27;8.60;;;7.90;1.00;;;;;;5133638;27;20192;-87
2022/04/26 05:17:00;;;;;;;16.73;8.33;;;8.00;1.00;;;;;;5133373;27;20718;-88
2022/04/26 05:19:27;;;;;;;15.40;7.80;;;8.10;1.00;;;;;;5133318;27;20273;-89
2022/04/26 05:21:54;;;;;;;14.57;7.30;;;8.20;1.00;;;;;;5132376;27;20645;-90
2022/04/26 05:27:06;;;;;;;13.53;7.80;;;8.40;1.00;;;;;;5133401;28;20708;-87
2022/04/26 05:29:33;;;;;;;27.23;8.83;;;8.60;1.00;;;;;;5133398;27;20228;-88
2022/04/26 05:32:01;;;;;;;18.00;8.53;;;8.70;1.00;;;;;;5132927;27;20182;-87
2022/04/26 05:34:28;;;;;;;11.20;7.47;;;8.80;1.00;;;;;;5133275;28;20194;-88
2022/04/26 05:36:57;;;;;;;17.07;8.97;;;9.00;1.00;;;;;;5133678;28;20195;-89
2022/04/26 05:39:23;;;;;;;15.63;8.47;;;9.10;1.00;;;;;;5133052;27;20217;-87
2022/04/26 05:41:50;;;;;;;14.10;8.10;;;9.20;1.00;;;;;;5132883;28;20190;-87
2022/04/26 05:44:17;;;;;;;10.93;7.87;;;9.30;1.00;;;;;;5133381;27;20596;-87
2022/04/26 05:46:44;;;;;;;12.30;8.63;;;9.30;1.00;;;;;;5133147;27;20200;-89
2022/04/26 05:49:13;;;;;;;15.40;8.57;;;9.40;1.00;;;;;;5133557;27;20240;-87
2022/04/26 05:51:40;;;;;;;13.10;9.17;;;9.40;1.00;;;;;;5133589;27;20267;-88
2022/04/26 05:54:07;;;;;;;14.00;9.20;;;9.50;1.00;;;;;;5133125;28;20195;-86
2022/04/26 05:56:34;;;;;;;11.97;8.97;;;9.60;1.00;;;;;;5132815;27;20199;-86
2022/04/26 05:59:01;;;;;;;31.77;16.70;;;9.70;1.00;;;;;;5132760;28;20683;-88
2022/04/26 06:01:28;;;;;;;12.97;8.53;;;9.80;99.90;;;;;;5132954;27;20194;-88
2022/04/26 06:03:55;;;;;;;12.93;8.20;;;10.00;99.90;;;;;;5133095;27;20194;-87
2022/04/26 06:06:25;;;;;;;11.00;7.83;;;10.00;99.90;;;;;;5133111;27;20221;-87
2022/04/26 06:08:53;;;;;;;9.20;7.40;;;10.20;99.90;;;;;;5133129;27;20210;-86
2022/04/26 06:11:20;;;;;;;9.80;7.23;;;10.40;99.90;;;;;;5133279;27;20187;-87
2022/04/26 06:13:47;;;;;;;12.13;7.43;;;10.40;99.90;;;;;;5133741;27;20267;-88
2022/04/26 06:16:14;;;;;;;10.10;7.30;;;10.50;99.90;;;;;;5136859;27;20198;-87
2022/04/26 06:18:42;;;;;;;8.70;7.17;;;10.50;99.90;;;;;;5136941;27;20202;-86
2022/04/26 06:21:09;;;;;;;10.60;7.03;;;10.70;99.90;;;;;;5136429;27;20191;-85
2022/04/26 06:23:37;;;;;;;10.33;7.03;;;10.80;99.90;;;;;;5136145;27;20248;-86
2022/04/26 06:26:05;;;;;;;7.97;6.20;;;11.00;99.90;;;;;;5136509;27;20251;-86
2022/04/26 06:28:32;;;;;;;9.23;6.40;;;11.20;99.90;;;;;;5142045;27;20222;-88
2022/04/26 06:30:59;;;;;;;9.80;6.67;;;11.50;99.90;;;;;;5136167;27;20237;-87
2022/04/26 06:33:26;;;;;;;8.53;6.37;;;11.80;99.90;;;;;;5115655;28;20198;-88
2022/04/26 06:35:53;;;;;;;9.40;6.30;;;12.30;99.90;;;;;;5115509;28;20199;-87
2022/04/26 06:38:22;;;;;;;9.10;6.23;;;12.70;99.90;;;;;;5115487;28;20200;-88
2022/04/26 06:40:51;;;;;;;8.63;6.00;;;13.80;99.90;;;;;;5115804;28;20305;-88
2022/04/26 06:43:18;;;;;;;7.90;5.90;;;14.70;94.00;;;;;;5115957;28;20198;-88
2022/04/26 06:45:46;;;;;;;6.82;4.95;;;15.50;98.20;;;;;;5115216;28;20179;-88
2022/04/26 06:48:14;;;;;;;8.30;5.40;;;16.80;1.00;;;;;;5115761;28;20121;-88
2022/04/26 06:50:41;;;;;;;7.22;4.60;;;18.00;1.00;;;;;;5115281;28;20191;-86
2022/04/26 06:53:09;;;;;;;5.65;4.60;;;18.90;1.00;;;;;;5114934;28;20595;-88
2022/04/26 06:55:36;;;;;;;6.38;4.40;;;19.30;1.00;;;;;;5115297;28;20060;-87
2022/04/26 06:58:04;;;;;;;7.13;6.32;;;19.60;1.00;;;;;;5115157;28;20728;-87
2022/04/26 07:00:31;;;;;;;7.60;4.30;;;20.50;1.00;;;;;;5114919;28;20264;-88
2022/04/26 07:02:59;;;;;;;6.22;4.50;;;21.60;1.00;;;;;;5134332;27;20109;-88
2022/04/26 07:05:26;;;;;;;5.78;4.40;;;22.40;1.00;;;;;;5135484;27;20194;-87
2022/04/26 07:07:53;;;;;;;5.97;4.72;;;22.70;1.00;;;;;;5135182;27;20596;-87
2022/04/26 07:10:21;;;;;;;7.88;5.68;;;22.70;1.00;;;;;;5135657;27;20194;-86
2022/04/26 07:12:48;;;;;;;7.22;4.53;;;22.30;1.00;;;;;;5135353;27;20197;-86
2022/04/26 07:15:17;;;;;;;9.25;6.40;;;22.10;1.00;;;;;;5135047;27;20194;-86
2022/04/26 07:17:44;;;;;;;5.15;4.22;;;22.30;1.00;;;;;;5135704;27;20194;-88
2022/04/26 07:20:11;;;;;;;7.13;5.10;;;23.00;1.00;;;;;;5135673;27;20253;-89
2022/04/26 07:22:39;;;;;;;5.55;3.85;;;23.90;1.00;;;;;;5135217;27;20539;-88
2022/04/26 07:25:07;;;;;;;7.35;4.30;;;24.70;1.00;;;;;;5134366;27;20251;-87
2022/04/26 07:27:34;;;;;;;6.38;4.75;;;25.20;1.00;;;;;;5134875;27;20672;-88
2022/04/26 07:30:01;;;;;;;5.53;4.40;;;25.90;1.00;;;;;;5135129;27;20261;-88
2022/04/26 07:35:11;;;;;;;4.47;3.97;;;26.90;1.00;;;;;;5134867;27;20264;-89
2022/04/26 07:37:39;;;;;;;4.88;4.13;;;27.10;1.00;;;;;;5134763;27;20646;-85
2022/04/26 07:40:07;;;;;;;6.32;4.65;;;27.60;1.00;;;;;;5134921;27;20198;-84
2022/04/26 07:42:34;;;;;;;40.47;22.95;;;28.00;1.00;;;;;;5134583;27;20235;-84
2022/04/26 07:45:01;;;;;;;5.18;3.60;;;28.20;1.00;;;;;;5134671;27;20691;-84
2022/04/26 07:47:30;;;;;;;5.95;3.83;;;28.70;1.00;;;;;;5134421;27;20194;-85
2022/04/26 07:49:58;;;;;;;10.93;3.97;;;29.10;1.00;;;;;;5134528;27;20605;-86
2022/04/26 07:52:27;;;;;;;5.05;3.28;;;29.50;1.00;;;;;;5134837;27;20202;-87
2022/04/26 07:54:54;;;;;;;5.25;3.13;;;29.90;1.00;;;;;;5134794;27;20193;-85
2022/04/26 07:57:21;;;;;;;4.85;3.28;;;29.70;1.00;;;;;;5134301;27;20709;-85
2022/04/26 07:59:49;;;;;;;4.50;3.03;;;29.30;1.00;;;;;;5134348;27;20289;-86
2022/04/26 08:02:16;;;;;;;2.85;2.58;;;29.20;1.00;;;;;;5134809;27;20375;-86
2022/04/26 08:04:44;;;;;;;5.35;3.83;;;29.50;1.00;;;;;;5134801;27;20202;-86
2022/04/26 08:07:11;;;;;;;3.72;2.80;;;30.10;1.00;;;;;;5134769;27;20192;-88
2022/04/26 08:09:39;;;;;;;6.60;3.97;;;30.60;1.00;;;;;;5134494;27;20221;-88
2022/04/26 08:12:07;;;;;;;3.00;2.53;;;30.80;1.00;;;;;;5134055;27;20210;-87
2022/04/26 08:14:34;;;;;;;4.68;2.50;;;31.10;1.00;;;;;;5133884;27;20239;-86
2022/04/26 08:17:01;;;;;;;3.03;2.70;;;30.70;1.00;;;;;;5134369;27;20586;-85
2022/04/26 08:19:28;;;;;;;2.85;2.33;;;30.30;1.00;;;;;;5134172;27;20186;-86
2022/04/26 08:21:58;;;;;;;4.43;2.75;;;29.60;1.00;;;;;;5134340;27;20247;-86
2022/04/26 08:27:25;;;;;;;3.33;2.45;;;29.40;1.00;;;;;;5133799;27;20341;-84
2022/04/26 08:29:52;;;;;;;5.65;2.67;;;29.70;1.00;;;;;;5134016;27;20222;-84
2022/04/26 08:32:19;;;;;;;4.45;2.60;;;29.50;1.00;;;;;;5133730;27;20191;-83
2022/04/26 08:34:46;;;;;;;4.40;2.95;;;29.50;1.00;;;;;;5133731;27;20201;-85
2022/04/26 08:37:15;;;;;;;3.00;2.20;;;29.80;1.00;;;;;;5133917;27;20206;-84
2022/04/26 08:39:42;;;;;;;23.83;14.00;;;30.30;1.00;;;;;;5133783;27;20197;-86
2022/04/26 08:42:09;;;;;;;2.95;2.40;;;30.50;1.00;;;;;;5133499;27;20643;-84
2022/04/26 08:44:38;;;;;;;3.25;2.33;;;30.50;1.00;;;;;;5133418;27;20222;-86
2022/04/26 08:52:49;;;;;;;4.47;3.50;;;29.50;1.00;;;;;;5070484;28;20534;-85
2022/04/26 08:55:16;;;;;;;3.08;2.30;;;29.60;1.00;;;;;;5119236;27;20529;-86
2022/04/26 08:57:43;;;;;;;2.45;2.22;;;29.90;1.00;;;;;;5133488;27;20604;-83
2022/04/26 09:00:12;;;;;;;2.97;2.30;;;30.40;1.00;;;;;;5133554;27;20199;-85
2022/04/26 09:02:40;;;;;;;3.28;2.50;;;30.50;1.00;;;;;;5133504;27;20290;-85
2022/04/26 09:05:11;;;;;;;3.63;2.70;;;29.90;1.00;;;;;;5133478;27;20292;-86
2022/04/26 09:07:39;;;;;;;4.95;2.70;;;29.30;1.00;;;;;;5133258;27;20194;-85
2022/04/26 09:10:12;;;;;;;2.53;2.33;;;29.40;1.00;;;;;;5133257;27;20214;-86
2022/04/26 09:13:07;;;;;;;3.20;2.20;;;29.70;1.00;;;;;;5133277;27;20251;-86
2022/04/26 09:15:35;;;;;;;4.35;2.90;;;29.90;1.00;;;;;;5133362;27;20179;-84
2022/04/26 09:18:17;;;;;;;3.58;2.90;;;29.70;1.00;;;;;;5133455;28;20193;-87
2022/04/26 09:20:45;;;;;;;2.75;2.30;;;29.80;1.00;;;;;;5133434;27;20210;-86
2022/04/26 09:23:16;;;;;;;3.15;2.30;;;30.00;1.00;;;;;;5133028;28;20204;-86
2022/04/26 09:25:45;;;;;;;3.08;2.78;;;29.80;1.00;;;;;;5133224;28;20225;-85
2022/04/26 09:28:21;;;;;;;3.22;2.40;;;29.40;1.00;;;;;;5132817;28;20194;-86
2022/04/26 09:30:48;;;;;;;3.05;2.58;;;29.50;1.00;;;;;;5133319;28;20206;-86
2022/04/26 09:33:31;;;;;;;4.35;2.60;;;29.40;1.00;;;;;;5133646;28;20194;-84
2022/04/26 09:36:02;;;;;;;3.15;2.85;;;28.90;1.00;;;;;;5133233;27;20182;-85
2022/04/26 09:38:32;;;;;;;;;;;28.50;1.00;;;;;;5133523;28;20058;-86
2022/04/26 09:41:06;;;;;;;5.03;2.63;;;28.20;1.00;;;;;;5133235;27;20212;-87
2022/04/26 09:43:33;;;;;;;4.05;2.83;;;28.10;1.00;;;;;;5132995;28;20265;-87
2022/04/26 09:46:00;;;;;;;3.15;2.78;;;27.80;1.00;;;;;;5133086;28;20235;-88
2022/04/26 09:48:29;;;;;;;3.53;2.95;;;27.40;1.00;;;;;;5133355;27;20194;-86
2022/04/26 09:50:57;;;;;;;5.57;4.13;;;27.00;1.00;;;;;;5136968;27;20344;-86
2022/04/26 09:53:24;;;;;;;3.42;2.63;;;26.60;1.00;;;;;;5137009;27;20194;-87
2022/04/26 09:55:53;;;;;;;4.95;2.90;;;26.20;1.00;;;;;;5136914;27;20604;-87
2022/04/26 09:58:23;;;;;;;3.42;2.80;;;26.00;1.00;;;;;;5137227;27;20194;-88
2022/04/26 10:00:52;;;;;;;3.45;3.00;;;25.90;1.00;;;;;;5136833;27;20190;-86
2022/04/26 10:03:24;;;;;;;5.72;2.53;;;25.70;1.00;;;;;;5137215;27;20198;-86
2022/04/26 10:06:00;;;;;;;3.30;2.58;;;25.60;1.00;;;;;;5137300;27;20217;-86
2022/04/26 10:08:30;;;;;;;3.05;2.10;;;25.40;1.00;;;;;;5136478;27;20209;-86
2022/04/26 10:10:58;;;;;;;3.17;2.33;;;24.70;1.00;;;;;;5136389;27;20249;-87
2022/04/26 10:13:35;;;;;;;4.70;2.50;;;24.20;1.00;;;;;;5136341;27;20662;-86
2022/04/26 10:16:05;;;;;;;2.83;2.38;;;24.00;1.00;;;;;;5136247;27;20181;-86
2022/04/26 10:18:35;;;;;;;4.47;2.78;;;23.90;1.00;;;;;;5136355;27;20627;-87
2022/04/26 10:21:05;;;;;;;3.97;2.22;;;23.90;1.00;;;;;;5136446;27;20178;-88
2022/04/26 10:24:05;;;;;;;3.65;3.03;;;23.90;1.00;;;;;;5136107;27;20231;-85
2022/04/26 10:26:33;;;;;;;3.13;2.47;;;23.60;1.00;;;;;;5136493;27;20187;-87
2022/04/26 10:29:12;;;;;;;4.07;2.20;;;23.50;1.00;;;;;;5136250;27;20632;-88
2022/04/26 10:31:42;;;;;;;6.22;3.42;;;23.40;1.00;;;;;;5136012;27;20293;-86
2022/04/26 10:34:25;;;;;;;4.15;2.20;;;23.30;1.00;;;;;;5136290;27;20194;-86
2022/04/26 10:36:54;;;;;;;2.80;2.30;;;23.30;1.00;;;;;;5136676;27;20189;-86
2022/04/26 10:39:22;;;;;;;2.90;2.40;;;23.20;1.00;;;;;;5135956;27;20722;-87
2022/04/26 10:41:49;;;;;;;4.63;2.05;;;22.90;1.00;;;;;;5136307;27;20204;-86
2022/04/26 10:44:32;;;;;;;5.28;2.80;;;22.70;1.00;;;;;;5136243;27;20190;-86
2022/04/26 10:47:24;;;;;;;3.65;2.28;;;22.50;1.00;;;;;;5135616;27;20673;-86
2022/04/26 10:49:52;;;;;;;5.07;2.30;;;22.40;1.00;;;;;;5136385;27;20198;-85
2022/04/26 10:52:41;;;;;;;6.63;3.78;;;22.50;1.00;;;;;;5136008;27;20263;-87
2022/04/26 10:55:10;;;;;;;2.80;2.45;;;22.70;1.00;;;;;;5135940;27;20591;-86
2022/04/26 10:57:40;;;;;;;2.42;2.10;;;22.70;1.00;;;;;;5136148;27;20190;-85
2022/04/26 11:00:10;;;;;;;3.85;2.47;;;22.80;1.00;;;;;;5135343;27;20731;-86
2022/04/26 11:02:39;;;;;;;5.50;2.78;;;23.00;1.00;;;;;;5135657;27;20633;-86
2022/04/26 11:05:10;;;;;;;2.90;2.40;;;23.00;1.00;;;;;;5135422;27;20646;-86
2022/04/26 11:07:38;;;;;;;6.18;2.50;;;23.00;1.00;;;;;;5135720;27;20267;-87
2022/04/26 11:10:07;;;;;;;4.38;2.42;;;23.00;1.00;;;;;;5135583;27;20191;-86
2022/04/26 11:12:35;;;;;;;5.25;2.25;;;23.10;1.00;;;;;;5135196;27;20186;-87
2022/04/26 11:15:04;;;;;;;2.40;1.80;;;23.10;1.00;;;;;;5135381;27;20560;-86
2022/04/26 11:17:32;;;;;;;2.97;2.30;;;23.20;1.00;;;;;;5135086;27;20187;-86
2022/04/26 11:20:01;;;;;;;2.50;2.13;;;23.40;1.00;;;;;;5135401;27;20247;-87
2022/04/26 11:22:29;;;;;;;4.25;3.28;;;23.30;1.00;;;;;;5135262;27;20251;-87
2022/04/26 11:28:03;;;;;;;2.42;2.00;;;22.70;1.00;;;;;;5135169;27;20174;-87
2022/04/26 11:30:35;;;;;;;2.92;2.17;;;22.00;1.00;;;;;;5135266;27;20225;-88
2022/04/26 11:33:06;;;;;;;2.90;2.15;;;21.60;1.00;;;;;;5134831;27;20183;-85
2022/04/26 11:35:34;;;;;;;2.17;1.98;;;21.50;1.00;;;;;;5135085;27;20174;-86
2022/04/26 11:38:06;;;;;;;3.97;2.28;;;21.10;1.00;;;;;;5134920;27;20193;-86
2022/04/26 11:40:36;;;;;;;5.65;2.55;;;20.90;1.00;;;;;;5134719;27;20709;-86
2022/04/26 11:43:09;;;;;;;8.55;2.20;;;20.70;1.00;;;;;;5134739;27;20191;-86
2022/04/26 11:45:36;;;;;;;4.97;2.70;;;20.40;1.00;;;;;;5135093;27;20223;-87
2022/04/26 11:48:10;;;;;;;3.67;2.50;;;20.10;1.00;;;;;;5134582;27;20236;-86
2022/04/26 11:50:37;;;;;;;2.25;2.05;;;19.90;1.00;;;;;;5134465;27;20639;-85
2022/04/26 11:53:06;;;;;;;4.47;2.22;;;19.80;1.00;;;;;;5134738;27;20256;-84
2022/04/26 11:55:35;;;;;;;6.80;2.53;;;19.80;1.00;;;;;;5134685;27;20235;-84
2022/04/26 11:58:17;;;;;;;3.72;2.08;;;20.00;1.00;;;;;;5134639;27;20190;-86
2022/04/26 12:00:52;;;;;;;4.53;2.33;;;20.30;1.00;;;;;;5134559;27;20271;-87
2022/04/26 12:03:21;;;;;;;4.10;2.25;;;20.60;1.00;;;;;;5134565;27;20664;-85
2022/04/26 12:05:53;;;;;;;4.10;2.40;;;20.70;1.00;;;;;;5134765;27;20205;-86
2022/04/26 12:08:21;;;;;;;3.20;2.28;;;20.70;1.00;;;;;;5134395;27;20223;-85
2022/04/26 12:10:48;;;;;;;2.13;1.92;;;20.80;1.00;;;;;;5134271;27;20220;-87
2022/04/26 12:13:29;;;;;;;2.47;2.28;;;21.00;1.00;;;;;;5133864;27;20194;-86
2022/04/26 12:15:57;;;;;;;3.03;2.10;;;21.10;1.00;;;;;;5134571;27;20174;-85
2022/04/26 12:18:26;;;;;;;3.78;1.88;;;21.10;1.00;;;;;;5134375;27;20191;-84
2022/04/26 12:20:59;;;;;;;4.35;2.15;;;21.10;1.00;;;;;;5134221;27;20251;-87
2022/04/26 12:23:26;;;;;;;2.70;1.90;;;21.10;1.00;;;;;;5134335;27;20186;-87
2022/04/26 12:25:56;;;;;;;2.35;1.98;;;21.00;1.00;;;;;;5133695;27;20193;-86
2022/04/26 12:28:23;;;;;;;2.90;2.08;;;20.80;1.00;;;;;;5133795;27;20187;-87
2022/04/26 12:30:50;;;;;;;2.78;2.15;;;20.70;1.00;;;;;;5133586;27;20647;-84
2022/04/26 12:33:34;;;;;;;2.10;1.88;;;20.80;1.00;;;;;;5133319;27;20650;-86
2022/04/26 12:36:05;;;;;;;2.22;2.00;;;20.90;1.00;;;;;;5133952;27;20182;-84
2022/04/26 12:38:44;;;;;;;2.85;2.10;;;20.80;1.00;;;;;;5133867;27;20579;-84
2022/04/26 12:41:11;;;;;;;2.58;2.22;;;20.50;1.00;;;;;;5133397;27;20174;-85
2022/04/26 12:43:38;;;;;;;2.30;2.03;;;20.40;1.00;;;;;;5133816;27;20522;-86
2022/04/26 12:46:07;;;;;;;3.03;1.50;;;20.60;1.00;;;;;;5133631;27;20654;-86
2022/04/26 12:51:22;;;;;;;3.17;1.80;;;20.80;1.00;;;;;;5133291;27;20209;-84
2022/04/26 12:53:50;;;;;;;3.65;1.80;;;20.90;1.00;;;;;;5132879;27;20270;-84
2022/04/26 12:56:19;;;;;;;1.95;1.75;;;21.00;1.00;;;;;;5133466;27;20182;-84
2022/04/26 12:58:48;;;;;;;2.00;1.77;;;21.10;1.00;;;;;;5133533;27;20239;-84
2022/04/26 13:01:16;;;;;;;2.60;2.40;;;21.10;1.00;;;;;;5133331;27;20231;-85
2022/04/26 13:03:47;;;;;;;8.82;7.15;;;21.10;1.00;;;;;;5133190;27;20255;-85
2022/04/26 13:06:15;;;;;;;4.20;2.15;;;21.20;1.00;;;;;;5132778;27;20170;-85
2022/04/26 13:08:44;;;;;;;2.85;1.90;;;21.30;1.00;;;;;;5132353;27;20189;-86
2022/04/26 13:11:11;;;;;;;2.30;1.92;;;21.20;1.00;;;;;;5132347;27;20210;-84
2022/04/26 13:13:40;;;;;;;2.42;2.15;;;21.20;1.00;;;;;;5133364;27;20194;-84
2022/04/26 13:16:08;;;;;;;2.53;2.08;;;21.30;1.00;;;;;;5133258;27;20552;-85
2022/04/26 13:18:35;;;;;;;3.80;2.10;;;21.30;1.00;;;;;;5133302;28;20250;-84
2022/04/26 13:21:04;;;;;;;3.15;2.20;;;21.40;1.00;;;;;;5133373;28;20190;-86
2022/04/26 13:23:34;;;;;;;6.80;2.33;;;21.50;1.00;;;;;;5133639;27;20284;-86
2022/04/26 13:26:01;;;;;;;2.22;1.80;;;21.40;1.00;;;;;;5137215;27;20182;-84
2022/04/26 13:28:29;;;;;;;2.55;2.22;;;21.30;1.00;;;;;;5136524;27;20178;-84
2022/04/26 13:30:56;;;;;;;2.10;1.90;;;20.90;1.00;;;;;;5137142;27;20227;-84
2022/04/26 13:33:23;;;;;;;3.38;2.40;;;20.50;1.00;;;;;;5137178;27;20235;-86
2022/04/26 13:35:50;;;;;;;3.72;2.50;;;20.20;1.00;;;;;;5136790;27;20189;-85
2022/04/26 13:38:20;;;;;;;2.58;2.00;;;19.90;1.00;;;;;;5137369;27;20253;-84
2022/04/26 13:40:48;;;;;;;3.22;2.30;;;19.60;1.00;;;;;;5136862;27;20778;-85
2022/04/26 13:43:16;;;;;;;4.40;2.08;;;19.50;1.00;;;;;;5137531;27;20194;-86
2022/04/26 13:45:43;;;;;;;4.18;2.28;;;19.50;1.00;;;;;;5136661;27;20288;-84
2022/04/26 13:48:12;;;;;;;3.17;1.85;;;19.50;1.00;;;;;;5136546;27;20251;-84
2022/04/26 13:50:39;;;;;;;2.08;1.77;;;19.70;1.00;;;;;;5136590;27;20183;-83
2022/04/26 13:53:07;;;;;;;5.65;2.17;;;19.80;1.00;;;;;;5136110;27;20206;-85
2022/04/26 13:55:35;;;;;;;3.38;2.70;;;19.90;1.00;;;;;;5136702;27;20258;-84
2022/04/26 13:58:05;;;;;;;2.65;2.10;;;20.10;1.00;;;;;;5137048;27;20179;-84
2022/04/26 14:00:34;;;;;;;3.03;2.83;;;20.20;1.00;;;;;;5136777;27;20226;-85
2022/04/26 14:03:01;;;;;;;3.00;2.40;;;20.30;1.00;;;;;;5137018;27;20198;-85
2022/04/26 14:05:28;;;;;;;6.90;2.20;;;20.30;1.00;;;;;;5136625;27;20186;-84
2022/04/26 14:07:55;;;;;;;2.92;2.08;;;20.40;1.00;;;;;;5136750;27;20551;-86
2022/04/26 14:10:22;;;;;;;2.33;2.08;;;20.40;1.00;;;;;;5136474;27;20650;-85
2022/04/26 14:12:51;;;;;;;3.35;2.33;;;20.50;1.00;;;;;;5135875;27;20210;-87
2022/04/26 14:23:32;;;;;;;4.13;2.33;;;20.10;1.00;;;;;;5135770;27;20178;-84
2022/04/26 14:25:59;;;;;;;3.08;2.33;;;20.10;1.00;;;;;;5135051;27;20201;-85
2022/04/26 14:28:28;;;;;;;3.53;2.20;;;20.20;1.00;;;;;;5134556;27;20247;-86
2022/04/26 14:30:55;;;;;;;2.83;1.80;;;20.40;1.00;;;;;;5136434;27;20247;-85
2022/04/26 14:33:22;;;;;;;5.65;2.65;;;20.40;1.00;;;;;;5136110;27;20210;-85
2022/04/26 14:35:49;;;;;;;6.63;3.13;;;20.30;1.00;;;;;;5135504;27;20650;-85
2022/04/26 14:38:16;;;;;;;10.38;7.00;;;20.20;1.00;;;;;;5135830;27;20646;-85
2022/04/26 14:40:43;;;;;;;12.95;9.32;;;20.20;1.00;;;;;;5135141;27;20186;-85
2022/04/26 14:43:11;;;;;;;15.82;12.32;;;20.10;1.00;;;;;;5135763;27;20267;-85
2022/04/26 14:45:44;;;;;;;6.13;4.32;;;20.00;1.00;;;;;;5135938;27;20243;-85
2022/04/26 14:48:11;;;;;;;11.88;9.40;;;19.90;1.00;;;;;;5135701;27;20278;-85
2022/04/26 14:50:39;;;;;;;7.60;5.10;;;19.90;1.00;;;;;;5135417;27;20233;-85
2022/04/26 14:53:06;;;;;;;5.25;4.15;;;19.80;1.00;;;;;;5136114;27;20214;-85
2022/04/26 14:55:33;;;;;;;6.25;4.20;;;19.70;1.00;;;;;;5136077;27;20194;-85
2022/04/26 14:58:00;;;;;;;3.40;2.53;;;19.80;1.00;;;;;;5135543;27;20720;-85
2022/04/26 15:00:28;;;;;;;6.40;4.13;;;19.80;1.00;;;;;;5135691;27;20246;-85
2022/04/26 15:02:56;;;;;;;2.50;2.30;;;19.90;1.00;;;;;;5135750;27;20243;-86
2022/04/26 15:05:26;;;;;;;2.92;2.10;;;19.90;1.00;;;;;;5135117;27;20239;-85
2022/04/26 15:10:37;;;;;;;3.97;2.13;;;20.00;1.00;;;;;;5135726;27;20173;-85
2022/04/26 15:18:35;;;;;;;2.60;2.15;;;19.60;1.00;;;;;;5135236;27;20182;-85
2022/04/26 15:21:07;;;;;;;2.78;2.08;;;19.40;1.00;;;;;;5135312;27;20179;-85
2022/04/26 15:23:35;;;;;;;2.30;2.10;;;19.20;1.00;;;;;;5135082;27;20183;-85
2022/04/26 15:26:03;;;;;;;3.17;2.30;;;19.00;1.00;;;;;;5134952;27;20226;-84
2022/04/26 15:28:30;;;;;;;2.65;2.20;;;18.90;1.00;;;;;;5134625;27;20194;-84
2022/04/26 15:30:57;;;;;;;3.13;1.85;;;18.80;1.00;;;;;;5135353;27;20099;-84
2022/04/26 15:33:24;;;;;;;4.00;2.30;;;18.60;1.00;;;;;;5135196;27;20266;-85
2022/04/26 15:35:53;;;;;;;2.40;2.13;;;18.50;1.00;;;;;;5134971;27;20194;-84
2022/04/26 15:38:20;;;;;;;3.17;1.95;;;18.40;1.00;;;;;;5135135;27;20231;-85
2022/04/26 15:40:47;;;;;;;4.07;2.40;;;18.20;1.00;;;;;;5134789;27;20240;-86
2022/04/26 15:43:15;;;;;;;2.85;2.15;;;18.10;1.00;;;;;;5134959;27;20281;-84
2022/04/26 15:45:43;;;;;;;3.70;2.10;;;18.00;1.00;;;;;;5134367;27;20194;-84
2022/04/26 15:48:10;;;;;;;2.53;2.10;;;18.00;1.00;;;;;;5134029;27;20599;-85
2022/04/26 15:50:39;;;;;;;2.83;2.30;;;17.90;1.00;;;;;;5135024;27;20639;-85
2022/04/26 15:53:07;;;;;;;2.70;2.10;;;17.80;1.00;;;;;;5134795;27;20239;-84
2022/04/26 15:55:34;;;;;;;2.40;2.17;;;17.60;1.00;;;;;;5134662;27;20679;-84
2022/04/26 15:58:01;;;;;;;2.83;2.20;;;17.40;1.00;;;;;;5134575;27;20250;-85
2022/04/26 16:00:28;;;;;;;4.47;2.08;;;17.30;1.00;;;;;;5134502;27;20204;-85
2022/04/26 16:02:55;;;;;;;3.08;2.25;;;17.10;1.00;;;;;;5134280;27;20197;-85
2022/04/26 16:05:22;;;;;;;2.38;2.17;;;17.00;1.00;;;;;;5134112;27;20199;-84
2022/04/26 16:07:51;;;;;;;2.70;2.20;;;16.90;1.00;;;;;;5134477;27;20197;-85
2022/04/26 16:21:16;;;;;;;6.00;2.55;;;16.70;1.00;;;;;;5133959;27;20177;-85
2022/04/26 16:23:43;;;;;;;6.53;2.30;;;16.60;1.00;;;;;;5133832;27;20650;-85
2022/04/26 16:26:13;;;;;;;4.87;2.40;;;16.50;1.00;;;;;;5134072;27;20196;-85
2022/04/26 16:28:40;;;;;;;2.90;2.50;;;16.50;1.00;;;;;;5134069;27;20225;-85
2022/04/26 16:31:07;;;;;;;2.93;2.30;;;16.40;1.00;;;;;;5134279;27;20242;-85
2022/04/26 16:33:35;;;;;;;4.60;2.67;;;16.30;1.00;;;;;;5133828;27;20223;-85
2022/04/26 16:36:02;;;;;;;4.27;2.50;;;16.10;1.00;;;;;;5132524;27;20280;-84
2022/04/26 16:38:30;;;;;;;3.47;2.37;;;16.00;1.00;;;;;;5133731;27;20603;-84
2022/04/26 16:40:57;;;;;;;4.20;2.70;;;15.90;1.00;;;;;;5133456;27;20666;-85
2022/04/26 16:43:26;;;;;;;4.27;2.47;;;15.80;1.00;;;;;;5133928;27;20200;-86
2022/04/26 16:45:53;;;;;;;4.60;2.67;;;15.70;1.00;;;;;;5133857;27;20196;-85
2022/04/26 16:48:20;;;;;;;4.00;2.87;;;15.70;1.00;;;;;;5133537;27;20249;-85
2022/04/26 16:50:47;;;;;;;3.10;2.30;;;15.60;1.00;;;;;;5133722;27;20216;-85
2022/04/26 16:53:14;;;;;;;3.97;2.50;;;15.50;1.00;;;;;;5133226;27;20281;-85
2022/04/26 16:55:42;;;;;;;4.63;2.30;;;15.50;1.00;;;;;;5133874;27;20598;-84
2022/04/26 16:58:09;;;;;;;4.73;2.60;;;15.40;1.00;;;;;;5133655;27;20193;-84
2022/04/26 17:00:39;;;;;;;3.40;2.60;;;15.30;1.00;;;;;;5133488;27;20193;-84
2022/04/26 17:03:06;;;;;;;2.93;2.57;;;15.30;1.00;;;;;;5133551;27;20289;-85
2022/04/26 17:05:33;;;;;;;3.73;2.50;;;15.30;1.00;;;;;;5133511;27;20256;-85
2022/04/26 17:08:00;;;;;;;3.53;2.47;;;15.20;1.00;;;;;;5133130;27;20193;-85
2022/04/26 17:10:28;;;;;;;4.10;2.43;;;15.20;1.00;;;;;;5133556;27;20273;-85
2022/04/26 17:12:55;;;;;;;3.67;2.43;;;15.20;1.00;;;;;;5133266;27;20225;-85
2022/04/26 17:15:22;;;;;;;4.53;2.60;;;15.10;1.00;;;;;;5133093;27;20240;-85
2022/04/26 17:17:50;;;;;;;3.33;2.93;;;15.10;1.00;;;;;;5133058;27;20643;-84
2022/04/26 17:20:17;;;;;;;4.40;2.80;;;15.00;1.00;;;;;;5133507;27;20187;-85
2022/04/26 17:22:45;;;;;;;4.07;2.70;;;15.00;1.00;;;;;;5132939;27;20196;-84
2022/04/26 17:25:16;;;;;;;3.87;2.43;;;14.90;1.00;;;;;;5133040;28;20244;-86